Terminal Aerodrome Forecast
Issued by NWS

Home | Current Version | Previous Version | Text Only | Print | Product List | Glossary On
Versions: 1 2 3 4 5 6 7 8 9 10 11 12 13 14 15 16 17 18 19 20 21 22 23 24
011
FTUS41 KPBZ 041324 AAA
TAFFKL
TAF AMD
KFKL 041324Z 0413/0512 10004KT P6SM SCT050
     FM042300 VRB04KT P6SM VCSH BKN050
     FM050400 VRB04KT 5SM -SHRA OVC025
     FM050600 VRB03KT 3SM -SHRA BR OVC015
      AMD LTD TO CLD VIS AND WIND=

USA.gov is the U.S. government's official web portal to all federal, state and local government web resources and services.